sensor_id;sensor_type;location;lat;lon;timestamp;temperature;humidity
76967;DHT22;65904;52.278;20.972;2023-05-07T00:00:34;6.50;99.90
76967;DHT22;65904;52.278;20.972;2023-05-07T00:03:22;6.50;99.90
76967;DHT22;65904;52.278;20.972;2023-05-07T00:06:08;6.50;99.90
76967;DHT22;65904;52.278;20.972;2023-05-07T00:08:55;6.50;99.90
76967;DHT22;65904;52.278;20.972;2023-05-07T00:11:41;6.50;99.90
76967;DHT22;65904;52.278;20.972;2023-05-07T00:14:29;6.50;99.90
76967;DHT22;65904;52.278;20.972;2023-05-07T00:17:15;6.50;99.90
76967;DHT22;65904;52.278;20.972;2023-05-07T00:20:02;6.40;99.90
76967;DHT22;65904;52.278;20.972;2023-05-07T00:22:50;6.50;99.90
76967;DHT22;65904;52.278;20.972;2023-05-07T00:25:36;6.50;99.90
76967;DHT22;65904;52.278;20.972;2023-05-07T00:28:22;6.50;99.90
76967;DHT22;65904;52.278;20.972;2023-05-07T00:31:10;6.50;99.90
76967;DHT22;65904;52.278;20.972;2023-05-07T00:33:56;6.40;99.90
76967;DHT22;65904;52.278;20.972;2023-05-07T00:36:42;6.40;99.90
76967;DHT22;65904;52.278;20.972;2023-05-07T00:39:29;6.40;99.90
76967;DHT22;65904;52.278;20.972;2023-05-07T00:42:15;6.40;99.90
76967;DHT22;65904;52.278;20.972;2023-05-07T00:45:01;6.40;99.90
76967;DHT22;65904;52.278;20.972;2023-05-07T00:47:50;6.40;99.90
76967;DHT22;65904;52.278;20.972;2023-05-07T00:50:37;6.40;99.90
76967;DHT22;65904;52.278;20.972;2023-05-07T00:53:23;6.40;99.90
76967;DHT22;65904;52.278;20.972;2023-05-07T00:56:09;6.40;99.90
76967;DHT22;65904;52.278;20.972;2023-05-07T00:58:56;6.40;99.90
76967;DHT22;65904;52.278;20.972;2023-05-07T01:01:42;6.40;99.90
76967;DHT22;65904;52.278;20.972;2023-05-07T01:04:29;6.40;99.90
76967;DHT22;65904;52.278;20.972;2023-05-07T01:07:16;6.40;99.90
76967;DHT22;65904;52.278;20.972;2023-05-07T01:10:03;6.40;99.90
76967;DHT22;65904;52.278;20.972;2023-05-07T01:12:50;6.40;99.90
76967;DHT22;65904;52.278;20.972;2023-05-07T01:15:37;6.40;99.90
76967;DHT22;65904;52.278;20.972;2023-05-07T01:18:25;6.40;99.90
76967;DHT22;65904;52.278;20.972;2023-05-07T01:21:15;6.30;99.90
76967;DHT22;65904;52.278;20.972;2023-05-07T01:24:05;6.40;99.90
76967;DHT22;65904;52.278;20.972;2023-05-07T01:26:51;6.30;99.90
76967;DHT22;65904;52.278;20.972;2023-05-07T01:29:37;6.30;99.90
76967;DHT22;65904;52.278;20.972;2023-05-07T01:32:28;6.30;99.90
76967;DHT22;65904;52.278;20.972;2023-05-07T01:35:19;6.30;99.90
76967;DHT22;65904;52.278;20.972;2023-05-07T01:38:07;6.30;99.90
76967;DHT22;65904;52.278;20.972;2023-05-07T01:40:55;6.30;99.90
76967;DHT22;65904;52.278;20.972;2023-05-07T01:43:42;6.30;99.90
76967;DHT22;65904;52.278;20.972;2023-05-07T01:46:30;6.30;99.90
76967;DHT22;65904;52.278;20.972;2023-05-07T01:49:17;6.30;99.90
76967;DHT22;65904;52.278;20.972;2023-05-07T01:52:03;6.30;99.90
76967;DHT22;65904;52.278;20.972;2023-05-07T01:54:49;6.20;99.90
76967;DHT22;65904;52.278;20.972;2023-05-07T01:57:37;6.20;99.90
76967;DHT22;65904;52.278;20.972;2023-05-07T02:00:24;6.20;99.90
76967;DHT22;65904;52.278;20.972;2023-05-07T02:03:11;6.20;99.90
76967;DHT22;65904;52.278;20.972;2023-05-07T02:06:08;6.20;99.90
76967;DHT22;65904;52.278;20.972;2023-05-07T02:08:56;6.20;99.90
76967;DHT22;65904;52.278;20.972;2023-05-07T02:11:42;6.20;99.90
76967;DHT22;65904;52.278;20.972;2023-05-07T02:14:30;6.10;99.90
76967;DHT22;65904;52.278;20.972;2023-05-07T02:17:16;6.10;99.90
76967;DHT22;65904;52.278;20.972;2023-05-07T02:20:02;6.10;99.90
76967;DHT22;65904;52.278;20.972;2023-05-07T02:22:49;6.10;99.90
76967;DHT22;65904;52.278;20.972;2023-05-07T02:25:35;6.10;99.90
76967;DHT22;65904;52.278;20.972;2023-05-07T02:28:21;6.10;99.90
76967;DHT22;65904;52.278;20.972;2023-05-07T02:31:16;6.10;99.90
76967;DHT22;65904;52.278;20.972;2023-05-07T02:34:02;6.10;99.90
76967;DHT22;65904;52.278;20.972;2023-05-07T02:36:48;6.10;99.90
76967;DHT22;65904;52.278;20.972;2023-05-07T02:39:38;6.00;99.90
76967;DHT22;65904;52.278;20.972;2023-05-07T02:42:24;6.00;99.90
76967;DHT22;65904;52.278;20.972;2023-05-07T02:45:11;6.00;99.90
76967;DHT22;65904;52.278;20.972;2023-05-07T02:48:00;6.00;99.90
76967;DHT22;65904;52.278;20.972;2023-05-07T02:50:45;6.00;99.90
76967;DHT22;65904;52.278;20.972;2023-05-07T02:53:33;6.00;99.90
76967;DHT22;65904;52.278;20.972;2023-05-07T02:56:19;6.00;99.90
76967;DHT22;65904;52.278;20.972;2023-05-07T02:59:06;6.00;99.90
76967;DHT22;65904;52.278;20.972;2023-05-07T03:01:56;6.00;99.90
76967;DHT22;65904;52.278;20.972;2023-05-07T03:04:44;6.00;99.90
76967;DHT22;65904;52.278;20.972;2023-05-07T03:07:30;6.00;99.90
76967;DHT22;65904;52.278;20.972;2023-05-07T03:10:16;6.00;99.90
76967;DHT22;65904;52.278;20.972;2023-05-07T03:13:03;6.00;99.90
76967;DHT22;65904;52.278;20.972;2023-05-07T03:15:50;6.00;99.90
76967;DHT22;65904;52.278;20.972;2023-05-07T03:18:37;6.00;99.90
76967;DHT22;65904;52.278;20.972;2023-05-07T03:21:25;6.10;99.90
76967;DHT22;65904;52.278;20.972;2023-05-07T03:24:11;6.10;99.90
76967;DHT22;65904;52.278;20.972;2023-05-07T03:26:57;6.10;99.90
76967;DHT22;65904;52.278;20.972;2023-05-07T03:29:43;6.10;99.90
76967;DHT22;65904;52.278;20.972;2023-05-07T03:32:29;6.10;99.90
76967;DHT22;65904;52.278;20.972;2023-05-07T03:35:15;6.10;99.90
76967;DHT22;65904;52.278;20.972;2023-05-07T03:38:03;6.10;99.90
76967;DHT22;65904;52.278;20.972;2023-05-07T03:40:53;6.10;99.90
76967;DHT22;65904;52.278;20.972;2023-05-07T03:43:39;6.10;99.90
76967;DHT22;65904;52.278;20.972;2023-05-07T03:46:29;6.10;99.90
76967;DHT22;65904;52.278;20.972;2023-05-07T03:49:15;6.10;99.90
76967;DHT22;65904;52.278;20.972;2023-05-07T03:52:01;6.20;99.90
76967;DHT22;65904;52.278;20.972;2023-05-07T03:54:49;6.20;99.90
76967;DHT22;65904;52.278;20.972;2023-05-07T03:57:35;6.20;99.90
76967;DHT22;65904;52.278;20.972;2023-05-07T04:00:22;6.20;99.90
76967;DHT22;65904;52.278;20.972;2023-05-07T04:03:08;6.20;99.90
76967;DHT22;65904;52.278;20.972;2023-05-07T04:05:54;6.20;99.90
76967;DHT22;65904;52.278;20.972;2023-05-07T04:08:40;6.20;99.90
76967;DHT22;65904;52.278;20.972;2023-05-07T04:11:28;6.20;99.90
76967;DHT22;65904;52.278;20.972;2023-05-07T04:14:15;6.20;99.90
76967;DHT22;65904;52.278;20.972;2023-05-07T04:17:01;6.30;99.90
76967;DHT22;65904;52.278;20.972;2023-05-07T04:19:48;6.30;99.90
76967;DHT22;65904;52.278;20.972;2023-05-07T04:22:35;6.30;99.90
76967;DHT22;65904;52.278;20.972;2023-05-07T04:25:22;6.30;99.90
76967;DHT22;65904;52.278;20.972;2023-05-07T04:28:17;6.30;99.90
76967;DHT22;65904;52.278;20.972;2023-05-07T04:31:03;6.30;99.90
76967;DHT22;65904;52.278;20.972;2023-05-07T04:33:51;6.30;99.90
76967;DHT22;65904;52.278;20.972;2023-05-07T04:36:38;6.30;99.90
76967;DHT22;65904;52.278;20.972;2023-05-07T04:39:29;6.40;99.90
76967;DHT22;65904;52.278;20.972;2023-05-07T04:42:17;6.40;99.90
76967;DHT22;65904;52.278;20.972;2023-05-07T04:45:06;6.40;99.90
76967;DHT22;65904;52.278;20.972;2023-05-07T04:47:54;6.40;99.90
76967;DHT22;65904;52.278;20.972;2023-05-07T04:50:40;6.40;99.90
76967;DHT22;65904;52.278;20.972;2023-05-07T04:53:27;6.50;99.90
76967;DHT22;65904;52.278;20.972;2023-05-07T04:56:14;6.60;99.90
76967;DHT22;65904;52.278;20.972;2023-05-07T04:59:03;6.60;99.90
76967;DHT22;65904;52.278;20.972;2023-05-07T05:01:51;6.70;99.90
76967;DHT22;65904;52.278;20.972;2023-05-07T05:04:37;6.70;99.90
76967;DHT22;65904;52.278;20.972;2023-05-07T05:07:24;6.70;99.90
76967;DHT22;65904;52.278;20.972;2023-05-07T05:10:10;6.80;99.90
76967;DHT22;65904;52.278;20.972;2023-05-07T05:12:59;6.90;99.90
76967;DHT22;65904;52.278;20.972;2023-05-07T05:15:46;7.00;99.90
76967;DHT22;65904;52.278;20.972;2023-05-07T05:18:34;7.10;99.90
76967;DHT22;65904;52.278;20.972;2023-05-07T05:21:20;7.20;99.90
76967;DHT22;65904;52.278;20.972;2023-05-07T05:24:10;7.40;99.90
76967;DHT22;65904;52.278;20.972;2023-05-07T05:26:57;7.50;99.90
76967;DHT22;65904;52.278;20.972;2023-05-07T05:29:45;7.70;99.90
76967;DHT22;65904;52.278;20.972;2023-05-07T05:32:31;7.70;99.90
76967;DHT22;65904;52.278;20.972;2023-05-07T05:35:20;7.80;99.90
76967;DHT22;65904;52.278;20.972;2023-05-07T05:38:05;7.70;99.90
76967;DHT22;65904;52.278;20.972;2023-05-07T05:40:52;7.80;99.90
76967;DHT22;65904;52.278;20.972;2023-05-07T05:43:39;7.80;99.90
76967;DHT22;65904;52.278;20.972;2023-05-07T05:46:25;7.80;99.90
76967;DHT22;65904;52.278;20.972;2023-05-07T05:49:12;7.80;99.90
76967;DHT22;65904;52.278;20.972;2023-05-07T05:52:01;7.80;99.90
76967;DHT22;65904;52.278;20.972;2023-05-07T05:54:47;7.90;99.90
76967;DHT22;65904;52.278;20.972;2023-05-07T05:57:34;7.90;99.90
76967;DHT22;65904;52.278;20.972;2023-05-07T06:00:20;7.90;99.90
76967;DHT22;65904;52.278;20.972;2023-05-07T06:03:15;7.90;99.90
76967;DHT22;65904;52.278;20.972;2023-05-07T06:06:01;7.90;99.90
76967;DHT22;65904;52.278;20.972;2023-05-07T06:08:49;8.00;99.90
76967;DHT22;65904;52.278;20.972;2023-05-07T06:11:40;8.00;99.90
76967;DHT22;65904;52.278;20.972;2023-05-07T06:14:26;8.00;99.90
76967;DHT22;65904;52.278;20.972;2023-05-07T06:17:14;8.10;99.90
76967;DHT22;65904;52.278;20.972;2023-05-07T06:20:00;8.20;99.90
76967;DHT22;65904;52.278;20.972;2023-05-07T06:22:46;8.20;99.90
76967;DHT22;65904;52.278;20.972;2023-05-07T06:25:35;8.30;99.90
76967;DHT22;65904;52.278;20.972;2023-05-07T06:28:22;8.30;99.90
76967;DHT22;65904;52.278;20.972;2023-05-07T06:31:13;8.40;99.90
76967;DHT22;65904;52.278;20.972;2023-05-07T06:34:02;8.40;99.90
76967;DHT22;65904;52.278;20.972;2023-05-07T06:36:53;8.60;99.90
76967;DHT22;65904;52.278;20.972;2023-05-07T06:39:49;8.60;99.90
76967;DHT22;65904;52.278;20.972;2023-05-07T06:42:37;8.70;99.90
76967;DHT22;65904;52.278;20.972;2023-05-07T06:45:40;8.60;99.90
76967;DHT22;65904;52.278;20.972;2023-05-07T06:48:28;8.70;99.90
76967;DHT22;65904;52.278;20.972;2023-05-07T06:51:19;8.70;99.90
76967;DHT22;65904;52.278;20.972;2023-05-07T06:54:05;8.60;99.90
76967;DHT22;65904;52.278;20.972;2023-05-07T06:57:01;8.60;99.90
76967;DHT22;65904;52.278;20.972;2023-05-07T06:59:57;8.60;99.90
76967;DHT22;65904;52.278;20.972;2023-05-07T07:02:44;8.80;99.90
76967;DHT22;65904;52.278;20.972;2023-05-07T07:05:32;8.90;99.90
76967;DHT22;65904;52.278;20.972;2023-05-07T07:08:18;9.10;99.90
76967;DHT22;65904;52.278;20.972;2023-05-07T07:11:06;9.20;99.90
76967;DHT22;65904;52.278;20.972;2023-05-07T07:13:52;9.40;99.90
76967;DHT22;65904;52.278;20.972;2023-05-07T07:16:41;9.50;99.90
76967;DHT22;65904;52.278;20.972;2023-05-07T07:19:27;9.70;99.90
76967;DHT22;65904;52.278;20.972;2023-05-07T07:22:14;9.90;99.90
76967;DHT22;65904;52.278;20.972;2023-05-07T07:25:00;10.10;99.90
76967;DHT22;65904;52.278;20.972;2023-05-07T07:28:13;10.10;99.90
76967;DHT22;65904;52.278;20.972;2023-05-07T07:30:59;10.10;99.90
76967;DHT22;65904;52.278;20.972;2023-05-07T07:33:47;10.10;99.90
76967;DHT22;65904;52.278;20.972;2023-05-07T07:36:41;10.20;99.90
76967;DHT22;65904;52.278;20.972;2023-05-07T07:39:53;10.10;99.90
76967;DHT22;65904;52.278;20.972;2023-05-07T07:42:47;10.00;99.90
76967;DHT22;65904;52.278;20.972;2023-05-07T07:45:33;10.10;99.90
76967;DHT22;65904;52.278;20.972;2023-05-07T07:48:20;10.10;99.90
76967;DHT22;65904;52.278;20.972;2023-05-07T07:51:07;10.10;99.90
76967;DHT22;65904;52.278;20.972;2023-05-07T07:53:54;10.10;99.90
76967;DHT22;65904;52.278;20.972;2023-05-07T07:57:08;10.20;99.90
76967;DHT22;65904;52.278;20.972;2023-05-07T08:00:20;10.30;99.90
76967;DHT22;65904;52.278;20.972;2023-05-07T08:03:11;10.40;99.90
76967;DHT22;65904;52.278;20.972;2023-05-07T08:06:02;10.40;99.90
76967;DHT22;65904;52.278;20.972;2023-05-07T08:09:16;10.70;99.90
76967;DHT22;65904;52.278;20.972;2023-05-07T08:12:54;10.90;99.90
76967;DHT22;65904;52.278;20.972;2023-05-07T08:15:40;10.90;99.90
76967;DHT22;65904;52.278;20.972;2023-05-07T08:18:33;10.80;99.90
76967;DHT22;65904;52.278;20.972;2023-05-07T08:21:22;10.80;99.90
76967;DHT22;65904;52.278;20.972;2023-05-07T08:24:08;11.00;99.90
76967;DHT22;65904;52.278;20.972;2023-05-07T08:27:21;11.30;99.90
76967;DHT22;65904;52.278;20.972;2023-05-07T08:30:33;11.40;99.90
76967;DHT22;65904;52.278;20.972;2023-05-07T08:33:19;11.30;99.90
76967;DHT22;65904;52.278;20.972;2023-05-07T08:36:05;11.60;99.90
76967;DHT22;65904;52.278;20.972;2023-05-07T08:42:07;12.10;99.90
76967;DHT22;65904;52.278;20.972;2023-05-07T08:44:57;12.00;99.90
76967;DHT22;65904;52.278;20.972;2023-05-07T08:47:49;11.70;99.90
76967;DHT22;65904;52.278;20.972;2023-05-07T08:50:39;11.60;99.90
76967;DHT22;65904;52.278;20.972;2023-05-07T08:53:26;11.60;99.90
76967;DHT22;65904;52.278;20.972;2023-05-07T08:56:13;11.70;99.90
76967;DHT22;65904;52.278;20.972;2023-05-07T08:59:26;12.20;99.90
76967;DHT22;65904;52.278;20.972;2023-05-07T09:02:14;13.10;99.90
76967;DHT22;65904;52.278;20.972;2023-05-07T09:05:00;13.20;99.90
76967;DHT22;65904;52.278;20.972;2023-05-07T09:07:48;13.10;99.90
76967;DHT22;65904;52.278;20.972;2023-05-07T09:10:35;12.80;99.90
76967;DHT22;65904;52.278;20.972;2023-05-07T09:13:23;12.50;99.90
76967;DHT22;65904;52.278;20.972;2023-05-07T09:16:10;12.70;99.90
76967;DHT22;65904;52.278;20.972;2023-05-07T09:19:26;12.50;99.90
76967;DHT22;65904;52.278;20.972;2023-05-07T09:22:15;12.60;99.90
76967;DHT22;65904;52.278;20.972;2023-05-07T09:25:12;12.70;99.90
76967;DHT22;65904;52.278;20.972;2023-05-07T09:28:24;13.10;99.90
76967;DHT22;65904;52.278;20.972;2023-05-07T09:31:11;13.90;99.90
76967;DHT22;65904;52.278;20.972;2023-05-07T09:33:58;14.10;99.90
76967;DHT22;65904;52.278;20.972;2023-05-07T09:37:14;13.80;99.90
76967;DHT22;65904;52.278;20.972;2023-05-07T09:40:57;13.00;99.90
76967;DHT22;65904;52.278;20.972;2023-05-07T09:43:53;12.70;99.90
76967;DHT22;65904;52.278;20.972;2023-05-07T09:46:43;12.60;99.90
76967;DHT22;65904;52.278;20.972;2023-05-07T09:49:39;12.70;99.90
76967;DHT22;65904;52.278;20.972;2023-05-07T09:52:31;13.40;99.90
76967;DHT22;65904;52.278;20.972;2023-05-07T09:55:21;13.80;99.90
76967;DHT22;65904;52.278;20.972;2023-05-07T09:58:07;13.80;99.90
76967;DHT22;65904;52.278;20.972;2023-05-07T10:00:56;13.30;99.90
76967;DHT22;65904;52.278;20.972;2023-05-07T10:03:43;13.30;99.90
76967;DHT22;65904;52.278;20.972;2023-05-07T10:06:30;13.50;99.90
76967;DHT22;65904;52.278;20.972;2023-05-07T10:09:19;13.90;99.90
76967;DHT22;65904;52.278;20.972;2023-05-07T10:12:06;14.50;99.90
76967;DHT22;65904;52.278;20.972;2023-05-07T10:14:54;14.80;99.90
76967;DHT22;65904;52.278;20.972;2023-05-07T10:17:43;15.00;99.80
76967;DHT22;65904;52.278;20.972;2023-05-07T10:20:31;15.00;97.10
76967;DHT22;65904;52.278;20.972;2023-05-07T10:23:23;15.00;97.80
76967;DHT22;65904;52.278;20.972;2023-05-07T10:26:17;15.40;95.80
76967;DHT22;65904;52.278;20.972;2023-05-07T10:29:14;16.20;96.20
76967;DHT22;65904;52.278;20.972;2023-05-07T10:32:37;16.70;94.20
76967;DHT22;65904;52.278;20.972;2023-05-07T10:35:30;16.60;92.40
76967;DHT22;65904;52.278;20.972;2023-05-07T10:38:19;16.30;94.40
76967;DHT22;65904;52.278;20.972;2023-05-07T10:41:06;15.90;94.50
76967;DHT22;65904;52.278;20.972;2023-05-07T10:43:57;15.30;96.30
76967;DHT22;65904;52.278;20.972;2023-05-07T10:47:07;14.70;97.80
76967;DHT22;65904;52.278;20.972;2023-05-07T10:50:20;13.90;98.30
76967;DHT22;65904;52.278;20.972;2023-05-07T10:53:25;13.50;99.90
76967;DHT22;65904;52.278;20.972;2023-05-07T10:56:27;13.30;99.90
76967;DHT22;65904;52.278;20.972;2023-05-07T10:59:34;13.40;99.90
76967;DHT22;65904;52.278;20.972;2023-05-07T11:03:06;13.70;99.90
76967;DHT22;65904;52.278;20.972;2023-05-07T11:06:11;14.90;97.50
76967;DHT22;65904;52.278;20.972;2023-05-07T11:09:15;15.00;96.30
76967;DHT22;65904;52.278;20.972;2023-05-07T11:12:11;14.80;96.90
76967;DHT22;65904;52.278;20.972;2023-05-07T11:15:06;14.20;97.60
76967;DHT22;65904;52.278;20.972;2023-05-07T11:17:55;13.80;98.70
76967;DHT22;65904;52.278;20.972;2023-05-07T11:21:02;13.50;99.00
76967;DHT22;65904;52.278;20.972;2023-05-07T11:23:58;13.30;99.90
76967;DHT22;65904;52.278;20.972;2023-05-07T11:26:51;13.40;99.90
76967;DHT22;65904;52.278;20.972;2023-05-07T11:29:39;13.60;99.90
76967;DHT22;65904;52.278;20.972;2023-05-07T11:32:34;13.70;99.90
76967;DHT22;65904;52.278;20.972;2023-05-07T11:35:22;13.90;99.70
76967;DHT22;65904;52.278;20.972;2023-05-07T11:38:09;14.10;98.90
76967;DHT22;65904;52.278;20.972;2023-05-07T11:40:59;14.50;97.70
76967;DHT22;65904;52.278;20.972;2023-05-07T11:43:58;14.00;96.90
76967;DHT22;65904;52.278;20.972;2023-05-07T11:46:45;13.40;98.20
76967;DHT22;65904;52.278;20.972;2023-05-07T11:49:34;13.00;98.90
76967;DHT22;65904;52.278;20.972;2023-05-07T11:52:22;12.70;99.90
76967;DHT22;65904;52.278;20.972;2023-05-07T11:55:08;12.60;99.90
76967;DHT22;65904;52.278;20.972;2023-05-07T11:57:55;12.80;99.90
76967;DHT22;65904;52.278;20.972;2023-05-07T12:00:48;13.20;99.90
76967;DHT22;65904;52.278;20.972;2023-05-07T12:03:35;14.20;99.90
76967;DHT22;65904;52.278;20.972;2023-05-07T12:06:24;15.60;98.10
76967;DHT22;65904;52.278;20.972;2023-05-07T12:09:11;16.50;94.80
76967;DHT22;65904;52.278;20.972;2023-05-07T12:11:57;16.80;92.70
76967;DHT22;65904;52.278;20.972;2023-05-07T12:14:44;16.30;92.60
76967;DHT22;65904;52.278;20.972;2023-05-07T12:17:30;16.00;93.50
76967;DHT22;65904;52.278;20.972;2023-05-07T12:20:17;15.70;93.50
76967;DHT22;65904;52.278;20.972;2023-05-07T12:23:05;15.50;93.80
76967;DHT22;65904;52.278;20.972;2023-05-07T12:25:52;15.00;93.90
76967;DHT22;65904;52.278;20.972;2023-05-07T12:28:38;15.40;94.40
76967;DHT22;65904;52.278;20.972;2023-05-07T12:31:25;16.20;94.00
76967;DHT22;65904;52.278;20.972;2023-05-07T12:34:12;16.50;92.80
76967;DHT22;65904;52.278;20.972;2023-05-07T12:37:01;16.40;91.80
76967;DHT22;65904;52.278;20.972;2023-05-07T12:39:50;16.00;92.50
76967;DHT22;65904;52.278;20.972;2023-05-07T12:42:52;15.80;92.20
76967;DHT22;65904;52.278;20.972;2023-05-07T12:45:41;16.20;92.70
76967;DHT22;65904;52.278;20.972;2023-05-07T12:48:27;16.60;92.50
76967;DHT22;65904;52.278;20.972;2023-05-07T12:51:14;17.60;90.60
76967;DHT22;65904;52.278;20.972;2023-05-07T12:54:01;18.10;84.60
76967;DHT22;65904;52.278;20.972;2023-05-07T12:56:48;19.10;81.20
76967;DHT22;65904;52.278;20.972;2023-05-07T12:59:36;20.00;76.30
76967;DHT22;65904;52.278;20.972;2023-05-07T13:02:32;20.70;72.30
76967;DHT22;65904;52.278;20.972;2023-05-07T13:05:18;21.30;67.20
76967;DHT22;65904;52.278;20.972;2023-05-07T13:08:04;22.80;63.20
76967;DHT22;65904;52.278;20.972;2023-05-07T13:10:51;24.70;55.70
76967;DHT22;65904;52.278;20.972;2023-05-07T13:13:39;24.50;51.80
76967;DHT22;65904;52.278;20.972;2023-05-07T13:16:26;24.90;50.80
76967;DHT22;65904;52.278;20.972;2023-05-07T13:19:12;26.40;49.10
76967;DHT22;65904;52.278;20.972;2023-05-07T13:21:58;27.40;44.00
76967;DHT22;65904;52.278;20.972;2023-05-07T13:24:44;27.30;43.90
76967;DHT22;65904;52.278;20.972;2023-05-07T13:27:30;26.60;43.40
76967;DHT22;65904;52.278;20.972;2023-05-07T13:30:17;26.80;43.20
76967;DHT22;65904;52.278;20.972;2023-05-07T13:33:04;24.50;43.20
76967;DHT22;65904;52.278;20.972;2023-05-07T13:35:50;22.00;47.00
76967;DHT22;65904;52.278;20.972;2023-05-07T13:38:36;20.80;49.50
76967;DHT22;65904;52.278;20.972;2023-05-07T13:41:23;20.70;51.40
76967;DHT22;65904;52.278;20.972;2023-05-07T13:44:09;21.50;50.90
76967;DHT22;65904;52.278;20.972;2023-05-07T13:46:57;21.20;51.40
76967;DHT22;65904;52.278;20.972;2023-05-07T13:49:44;20.80;51.80
76967;DHT22;65904;52.278;20.972;2023-05-07T13:52:29;20.70;52.10
76967;DHT22;65904;52.278;20.972;2023-05-07T13:55:16;21.80;48.70
76967;DHT22;65904;52.278;20.972;2023-05-07T13:58:02;22.20;49.50
76967;DHT22;65904;52.278;20.972;2023-05-07T14:00:48;21.20;50.00
76967;DHT22;65904;52.278;20.972;2023-05-07T14:03:36;19.70;50.90
76967;DHT22;65904;52.278;20.972;2023-05-07T14:06:24;20.50;51.20
76967;DHT22;65904;52.278;20.972;2023-05-07T14:09:10;22.30;50.20
76967;DHT22;65904;52.278;20.972;2023-05-07T14:11:58;23.80;47.80
76967;DHT22;65904;52.278;20.972;2023-05-07T14:14:44;24.50;46.40
76967;DHT22;65904;52.278;20.972;2023-05-07T14:17:31;25.30;45.00
76967;DHT22;65904;52.278;20.972;2023-05-07T14:20:20;26.60;41.70
76967;DHT22;65904;52.278;20.972;2023-05-07T14:23:06;27.30;42.10
76967;DHT22;65904;52.278;20.972;2023-05-07T14:25:52;26.20;39.30
76967;DHT22;65904;52.278;20.972;2023-05-07T14:28:39;25.40;41.20
76967;DHT22;65904;52.278;20.972;2023-05-07T14:31:30;25.30;42.40
76967;DHT22;65904;52.278;20.972;2023-05-07T14:34:18;25.10;41.60
76967;DHT22;65904;52.278;20.972;2023-05-07T14:37:05;25.90;40.00
76967;DHT22;65904;52.278;20.972;2023-05-07T14:39:51;26.70;39.60
76967;DHT22;65904;52.278;20.972;2023-05-07T14:42:37;26.90;38.40
76967;DHT22;65904;52.278;20.972;2023-05-07T14:45:23;27.40;38.50
76967;DHT22;65904;52.278;20.972;2023-05-07T14:48:10;27.70;37.80
76967;DHT22;65904;52.278;20.972;2023-05-07T14:50:59;27.90;36.90
76967;DHT22;65904;52.278;20.972;2023-05-07T14:53:47;27.50;38.00
76967;DHT22;65904;52.278;20.972;2023-05-07T14:56:34;27.80;38.50
76967;DHT22;65904;52.278;20.972;2023-05-07T14:59:20;27.40;37.80
76967;DHT22;65904;52.278;20.972;2023-05-07T15:02:07;27.30;37.90
76967;DHT22;65904;52.278;20.972;2023-05-07T15:04:54;26.50;37.60
76967;DHT22;65904;52.278;20.972;2023-05-07T15:07:41;26.50;38.40
76967;DHT22;65904;52.278;20.972;2023-05-07T15:10:28;26.40;38.30
76967;DHT22;65904;52.278;20.972;2023-05-07T15:13:15;25.80;39.40
76967;DHT22;65904;52.278;20.972;2023-05-07T15:16:00;25.70;39.60
76967;DHT22;65904;52.278;20.972;2023-05-07T15:18:47;26.10;38.70
76967;DHT22;65904;52.278;20.972;2023-05-07T15:21:33;26.40;39.00
76967;DHT22;65904;52.278;20.972;2023-05-07T15:24:21;25.90;38.80
76967;DHT22;65904;52.278;20.972;2023-05-07T15:27:08;26.00;38.70
76967;DHT22;65904;52.278;20.972;2023-05-07T15:29:54;26.10;38.20
76967;DHT22;65904;52.278;20.972;2023-05-07T15:32:40;26.20;37.20
76967;DHT22;65904;52.278;20.972;2023-05-07T15:35:26;25.50;39.30
76967;DHT22;65904;52.278;20.972;2023-05-07T15:38:12;25.20;38.20
76967;DHT22;65904;52.278;20.972;2023-05-07T15:40:59;25.20;39.20
76967;DHT22;65904;52.278;20.972;2023-05-07T15:43:49;25.10;39.70
76967;DHT22;65904;52.278;20.972;2023-05-07T15:46:36;25.60;38.80
76967;DHT22;65904;52.278;20.972;2023-05-07T15:49:22;25.10;39.00
76967;DHT22;65904;52.278;20.972;2023-05-07T15:52:08;25.00;38.10
76967;DHT22;65904;52.278;20.972;2023-05-07T15:54:55;24.90;38.70
76967;DHT22;65904;52.278;20.972;2023-05-07T15:57:41;24.70;39.80
76967;DHT22;65904;52.278;20.972;2023-05-07T16:00:29;24.70;40.00
76967;DHT22;65904;52.278;20.972;2023-05-07T16:03:15;24.60;39.80
76967;DHT22;65904;52.278;20.972;2023-05-07T16:06:02;25.00;39.10
76967;DHT22;65904;52.278;20.972;2023-05-07T16:08:49;24.40;39.00
76967;DHT22;65904;52.278;20.972;2023-05-07T16:11:35;23.00;39.90
76967;DHT22;65904;52.278;20.972;2023-05-07T16:14:21;23.10;40.00
76967;DHT22;65904;52.278;20.972;2023-05-07T16:17:09;23.20;40.80
76967;DHT22;65904;52.278;20.972;2023-05-07T16:19:55;23.30;40.70
76967;DHT22;65904;52.278;20.972;2023-05-07T16:22:42;22.80;41.50
76967;DHT22;65904;52.278;20.972;2023-05-07T16:25:29;22.60;42.80
76967;DHT22;65904;52.278;20.972;2023-05-07T16:28:15;22.50;43.00
76967;DHT22;65904;52.278;20.972;2023-05-07T16:31:01;22.40;42.20
76967;DHT22;65904;52.278;20.972;2023-05-07T16:33:49;21.90;42.90
76967;DHT22;65904;52.278;20.972;2023-05-07T16:36:35;21.40;43.80
76967;DHT22;65904;52.278;20.972;2023-05-07T16:39:21;21.20;44.90
76967;DHT22;65904;52.278;20.972;2023-05-07T16:42:08;20.60;45.20
76967;DHT22;65904;52.278;20.972;2023-05-07T16:44:54;19.60;45.00
76967;DHT22;65904;52.278;20.972;2023-05-07T16:47:40;19.20;46.50
76967;DHT22;65904;52.278;20.972;2023-05-07T16:50:28;18.90;47.50
76967;DHT22;65904;52.278;20.972;2023-05-07T16:53:14;19.10;46.70
76967;DHT22;65904;52.278;20.972;2023-05-07T16:56:03;18.50;47.90
76967;DHT22;65904;52.278;20.972;2023-05-07T16:58:50;17.00;49.90
76967;DHT22;65904;52.278;20.972;2023-05-07T17:01:36;16.30;52.90
76967;DHT22;65904;52.278;20.972;2023-05-07T17:04:22;15.90;55.00
76967;DHT22;65904;52.278;20.972;2023-05-07T17:07:10;15.40;56.40
76967;DHT22;65904;52.278;20.972;2023-05-07T17:09:56;15.00;56.60
76967;DHT22;65904;52.278;20.972;2023-05-07T17:12:43;14.70;57.40
76967;DHT22;65904;52.278;20.972;2023-05-07T17:15:29;14.50;58.90
76967;DHT22;65904;52.278;20.972;2023-05-07T17:18:15;14.30;59.80
76967;DHT22;65904;52.278;20.972;2023-05-07T17:21:01;14.10;60.40
76967;DHT22;65904;52.278;20.972;2023-05-07T17:23:49;13.80;60.70
76967;DHT22;65904;52.278;20.972;2023-05-07T17:26:35;13.60;63.10
76967;DHT22;65904;52.278;20.972;2023-05-07T17:29:23;13.30;63.40
76967;DHT22;65904;52.278;20.972;2023-05-07T17:32:09;13.10;66.50
76967;DHT22;65904;52.278;20.972;2023-05-07T17:34:55;12.90;70.30
76967;DHT22;65904;52.278;20.972;2023-05-07T17:37:41;12.80;73.90
76967;DHT22;65904;52.278;20.972;2023-05-07T17:40:32;12.60;76.60
76967;DHT22;65904;52.278;20.972;2023-05-07T17:43:18;12.40;76.70